Terminal Aerodrome Forecast
Issued by NWS

Home | Current Version | Previous Version | Graphics & Text | Print | Product List | Glossary On
Versions: 1 2 3 4 5 6 7 8 9 10 11 12 13 14 15 16 17 18 19 20 21 22 23
000
FTUS41 KCLE 190500
TAFFDY
TAF
KFDY 190520Z 1906/2006 06006KT P6SM SKC
     FM190700 06004KT P6SM OVC025
      TEMPO 1907/1911 SCT025
     FM191100 08004KT 6SM BR SCT025
      TEMPO 1911/1913 4SM BR
     FM191330 10005KT P6SM SKC
     FM191600 12007KT P6SM SCT045
     FM200000 VRB03KT P6SM SKC
     FM200400 17008KT P6SM SKC=

USA.gov is the U.S. government's official web portal to all federal, state and local government web resources and services.